createdAt,value
2022-11-15T00:00:57.160Z,12.83
2022-11-15T00:03:26.094Z,15.30
2022-11-15T00:05:53.163Z,14.50
2022-11-15T00:08:20.362Z,14.40
2022-11-15T00:10:57.814Z,15.37
2022-11-15T00:13:24.757Z,14.30
2022-11-15T00:15:51.626Z,14.77
2022-11-15T00:18:19.023Z,13.70
2022-11-15T00:20:46.017Z,14.80
2022-11-15T00:23:13.083Z,14.80
2022-11-15T00:25:40.029Z,14.73
2022-11-15T00:28:06.751Z,14.03
2022-11-15T00:30:33.569Z,14.60
2022-11-15T00:33:04.583Z,14.70
2022-11-15T00:35:33.788Z,14.30
2022-11-15T00:38:00.986Z,14.10
2022-11-15T00:40:28.234Z,14.03
2022-11-15T00:42:55.020Z,13.37
2022-11-15T00:45:21.920Z,14.30
2022-11-15T00:47:48.675Z,14.77
2022-11-15T00:50:15.785Z,14.13
2022-11-15T00:52:42.874Z,13.87
2022-11-15T00:55:16.136Z,13.93
2022-11-15T00:57:43.105Z,13.77
2022-11-15T01:00:10.917Z,13.93
2022-11-15T01:02:37.667Z,13.87
2022-11-15T01:05:04.730Z,13.57
2022-11-15T01:07:31.509Z,13.33
2022-11-15T01:09:58.472Z,13.53
2022-11-15T01:12:25.251Z,13.43
2022-11-15T01:14:52.009Z,12.70
2022-11-15T01:17:18.762Z,13.17
2022-11-15T01:19:45.467Z,13.23
2022-11-15T01:22:12.290Z,13.23
2022-11-15T01:24:39.077Z,12.77
2022-11-15T01:27:05.894Z,12.80
2022-11-15T01:29:32.644Z,12.87
2022-11-15T01:31:59.581Z,12.53
2022-11-15T01:34:26.263Z,12.90
2022-11-15T01:36:52.978Z,13.83
2022-11-15T01:39:20.085Z,14.17
2022-11-15T01:41:46.926Z,13.80
2022-11-15T01:44:32.014Z,13.23
2022-11-15T01:47:05.305Z,12.43
2022-11-15T01:49:34.816Z,13.27
2022-11-15T01:52:04.625Z,13.67
2022-11-15T01:54:31.840Z,13.23
2022-11-15T01:57:04.993Z,13.17
2022-11-15T01:59:31.994Z,13.33
2022-11-15T02:01:58.931Z,13.33
2022-11-15T02:04:28.699Z,12.83
2022-11-15T02:06:56.262Z,12.67
2022-11-15T02:09:23.398Z,14.00
2022-11-15T02:11:53.115Z,13.53
2022-11-15T02:14:22.428Z,12.97
2022-11-15T02:16:52.086Z,12.73
2022-11-15T02:19:33.892Z,13.53
2022-11-15T02:22:34.434Z,13.90
2022-11-15T02:25:20.450Z,13.13
2022-11-15T02:28:06.019Z,13.37
2022-11-15T02:30:43.951Z,13.67
2022-11-15T02:33:29.632Z,13.00
2022-11-15T02:36:02.573Z,13.23
2022-11-15T02:38:32.360Z,12.10
2022-11-15T02:41:21.037Z,13.50
2022-11-15T02:43:57.632Z,14.90
2022-11-15T02:46:54.840Z,12.83
2022-11-15T02:49:22.517Z,13.03
2022-11-15T02:51:52.000Z,12.93
2022-11-15T02:54:23.205Z,13.67
2022-11-15T02:56:53.304Z,13.53
2022-11-15T02:59:29.072Z,13.90
2022-11-15T03:02:20.664Z,13.50
2022-11-15T03:05:31.613Z,14.47
2022-11-15T03:08:47.214Z,13.57
2022-11-15T03:11:20.560Z,13.30
2022-11-15T03:14:01.499Z,14.37
2022-11-15T03:16:31.073Z,13.87
2022-11-15T03:19:06.336Z,13.67
2022-11-15T03:21:35.045Z,13.20
2022-11-15T03:24:06.371Z,14.57
2022-11-15T03:26:35.941Z,14.37
2022-11-15T03:29:09.316Z,14.07
2022-11-15T03:31:51.187Z,13.70
2022-11-15T03:34:28.382Z,13.70
2022-11-15T03:36:55.594Z,14.17
2022-11-15T03:39:23.900Z,14.90
2022-11-15T03:42:12.404Z,15.13
2022-11-15T03:45:14.438Z,14.40
2022-11-15T03:47:46.518Z,14.60
2022-11-15T03:50:17.069Z,14.57
2022-11-15T03:52:46.786Z,14.73
2022-11-15T03:55:17.935Z,15.37
2022-11-15T03:57:44.914Z,15.13
2022-11-15T04:00:12.248Z,14.83
2022-11-15T04:02:38.973Z,14.70
2022-11-15T04:05:05.978Z,14.90
2022-11-15T04:07:32.804Z,15.30
2022-11-15T04:10:06.654Z,15.63
2022-11-15T04:12:35.955Z,14.50
2022-11-15T04:15:11.717Z,14.93
2022-11-15T04:17:58.211Z,14.63
2022-11-15T04:20:50.686Z,14.47
2022-11-15T04:23:41.760Z,13.80
2022-11-15T04:26:16.061Z,13.97
2022-11-15T04:29:01.526Z,13.93
2022-11-15T04:31:28.859Z,14.17
2022-11-15T04:33:56.466Z,15.10
2022-11-15T04:36:41.750Z,14.67
2022-11-15T04:39:08.999Z,14.60
2022-11-15T04:41:36.103Z,15.00
2022-11-15T04:44:03.008Z,14.40
2022-11-15T04:46:29.829Z,14.97
2022-11-15T04:48:58.856Z,15.63
2022-11-15T04:51:26.514Z,14.87
2022-11-15T04:53:53.325Z,15.23
2022-11-15T04:56:20.882Z,16.03
2022-11-15T04:58:50.843Z,15.23
2022-11-15T05:01:18.395Z,15.50
2022-11-15T05:04:04.544Z,14.87
2022-11-15T05:06:31.919Z,14.67
2022-11-15T05:08:59.185Z,14.40
2022-11-15T05:11:26.370Z,14.93
2022-11-15T05:13:53.796Z,14.57
2022-11-15T05:16:20.611Z,14.63
2022-11-15T05:18:47.375Z,14.33
2022-11-15T05:21:15.735Z,14.17
2022-11-15T05:23:42.690Z,14.33
2022-11-15T05:26:10.855Z,14.80
2022-11-15T05:28:37.789Z,14.77
2022-11-15T05:31:15.926Z,14.70
2022-11-15T05:33:44.304Z,15.27
2022-11-15T05:36:13.780Z,14.10
2022-11-15T05:38:40.934Z,14.63
2022-11-15T05:41:07.986Z,13.70
2022-11-15T05:43:37.989Z,15.10
2022-11-15T05:46:06.039Z,14.53
2022-11-15T05:48:37.115Z,13.23
2022-11-15T05:51:05.910Z,13.93
2022-11-15T05:53:33.318Z,14.47
2022-11-15T05:56:00.586Z,14.00
2022-11-15T05:58:27.429Z,13.90
2022-11-15T06:00:55.771Z,14.83
2022-11-15T06:03:22.586Z,13.17
2022-11-15T06:05:49.396Z,14.33
2022-11-15T06:08:16.116Z,12.73
2022-11-15T06:10:42.920Z,13.03
2022-11-15T06:13:09.746Z,12.73
2022-11-15T06:15:36.599Z,13.70
2022-11-15T06:18:03.753Z,12.73
2022-11-15T06:20:31.276Z,13.03
2022-11-15T06:22:59.958Z,13.07
2022-11-15T06:25:27.527Z,12.30
2022-11-15T06:27:58.169Z,12.87
2022-11-15T06:30:26.577Z,13.97
2022-11-15T06:33:00.166Z,13.73
2022-11-15T06:35:26.965Z,13.07
2022-11-15T06:37:53.791Z,12.73
2022-11-15T06:40:20.644Z,12.90
2022-11-15T06:42:47.403Z,12.33
2022-11-15T06:45:14.275Z,12.77
2022-11-15T06:47:47.775Z,12.60
2022-11-15T06:50:14.758Z,13.20
2022-11-15T06:52:42.610Z,12.37
2022-11-15T06:55:09.852Z,12.00
2022-11-15T06:57:37.478Z,12.53
2022-11-15T07:00:07.689Z,11.73
2022-11-15T07:02:34.461Z,12.30
2022-11-15T07:05:01.138Z,11.47
2022-11-15T07:07:27.956Z,11.60
2022-11-15T07:09:54.854Z,11.77
2022-11-15T07:12:21.694Z,12.23
2022-11-15T07:14:48.412Z,11.87
2022-11-15T07:17:15.173Z,11.87
2022-11-15T07:19:41.957Z,12.00
2022-11-15T07:22:08.845Z,11.60
2022-11-15T07:24:35.611Z,10.90
2022-11-15T07:27:02.501Z,11.07
2022-11-15T07:29:29.389Z,11.33
2022-11-15T07:31:56.444Z,10.67
2022-11-15T07:34:23.321Z,10.57
2022-11-15T07:36:50.253Z,11.20
2022-11-15T07:39:17.157Z,10.67
2022-11-15T07:41:44.569Z,10.63
2022-11-15T07:44:11.351Z,10.97
2022-11-15T07:46:38.128Z,10.47
2022-11-15T07:49:04.879Z,11.23
2022-11-15T07:51:32.218Z,10.73
2022-11-15T07:53:58.940Z,11.37
2022-11-15T07:56:25.714Z,10.77
2022-11-15T07:58:52.513Z,10.87
2022-11-15T08:01:19.376Z,10.33
2022-11-15T08:03:46.198Z,10.87
2022-11-15T08:06:13.002Z,11.37
2022-11-15T08:08:39.890Z,11.30
2022-11-15T08:11:06.664Z,11.17
2022-11-15T08:13:33.759Z,10.37
2022-11-15T08:16:01.959Z,11.13
2022-11-15T08:18:28.688Z,11.10
2022-11-15T08:20:59.729Z,10.47
2022-11-15T08:23:26.521Z,9.60
2022-11-15T08:25:53.223Z,10.00
2022-11-15T08:28:19.895Z,11.50
2022-11-15T08:30:46.659Z,10.13
2022-11-15T08:33:14.892Z,9.27
2022-11-15T08:35:45.008Z,8.47
2022-11-15T08:38:12.127Z,8.90
2022-11-15T08:40:38.910Z,8.20
2022-11-15T08:43:05.811Z,8.63
2022-11-15T08:45:34.760Z,8.17
2022-11-15T08:48:03.199Z,9.33
2022-11-15T08:50:30.185Z,9.30
2022-11-15T08:52:57.055Z,8.77
2022-11-15T08:55:24.963Z,7.87
2022-11-15T08:57:52.071Z,9.80
2022-11-15T09:00:20.980Z,8.07
2022-11-15T09:02:47.827Z,8.60
2022-11-15T09:05:17.121Z,7.57
2022-11-15T09:07:44.496Z,7.77
2022-11-15T09:10:11.565Z,7.70
2022-11-15T09:12:38.472Z,7.57
2022-11-15T09:15:06.583Z,6.10
2022-11-15T09:17:33.382Z,6.27
2022-11-15T09:20:00.290Z,6.10
2022-11-15T09:22:27.114Z,5.00
2022-11-15T09:24:53.903Z,4.83
2022-11-15T09:27:20.675Z,4.90
2022-11-15T09:29:47.394Z,4.30
2022-11-15T09:32:14.335Z,4.20
2022-11-15T09:34:41.118Z,4.30
2022-11-15T09:37:07.858Z,3.40
2022-11-15T09:39:34.601Z,3.67
2022-11-15T09:42:19.209Z,3.70
2022-11-15T09:44:55.395Z,3.40
2022-11-15T09:47:34.400Z,2.40
2022-11-15T09:50:08.837Z,2.57
2022-11-15T09:52:37.733Z,2.67
2022-11-15T09:55:08.903Z,2.50
2022-11-15T09:57:54.458Z,2.93
2022-11-15T10:00:50.035Z,2.07
2022-11-15T10:03:34.454Z,2.00
2022-11-15T10:06:06.257Z,2.20
2022-11-15T10:08:44.577Z,1.77
2022-11-15T10:11:36.697Z,1.87
2022-11-15T10:14:11.394Z,1.73
2022-11-15T10:16:49.346Z,1.67
2022-11-15T10:19:24.019Z,1.70
2022-11-15T10:22:18.603Z,1.50
2022-11-15T10:24:46.772Z,3.57
2022-11-15T10:27:16.285Z,1.60
2022-11-15T10:29:48.197Z,1.67
2022-11-15T10:32:17.622Z,1.43
2022-11-15T10:34:45.245Z,1.57
2022-11-15T10:37:12.433Z,1.20
2022-11-15T10:39:39.484Z,1.10
2022-11-15T10:42:25.913Z,1.20
2022-11-15T10:44:52.641Z,1.70
2022-11-15T10:47:38.900Z,1.00
2022-11-15T10:50:25.924Z,1.10
2022-11-15T10:52:52.814Z,1.00
2022-11-15T10:55:24.919Z,1.10
2022-11-15T10:57:55.296Z,1.43
2022-11-15T11:00:22.083Z,1.00
2022-11-15T11:03:22.013Z,1.10
2022-11-15T11:05:48.765Z,1.00
2022-11-15T11:08:15.441Z,0.90
2022-11-15T11:11:00.249Z,0.90
2022-11-15T11:13:29.958Z,1.13
2022-11-15T11:16:14.718Z,0.80
2022-11-15T11:18:44.520Z,1.07
2022-11-15T11:21:15.824Z,0.70
2022-11-15T11:24:15.881Z,0.67
2022-11-15T11:27:20.451Z,0.60
2022-11-15T11:30:18.014Z,0.90
2022-11-15T11:33:16.023Z,0.83
2022-11-15T11:36:19.525Z,0.97
2022-11-15T11:39:18.308Z,0.80
2022-11-15T11:42:01.541Z,0.57
2022-11-15T11:44:31.008Z,0.97
2022-11-15T11:47:08.623Z,0.70
2022-11-15T11:49:38.190Z,0.90
2022-11-15T11:52:10.350Z,0.87
2022-11-15T11:55:23.425Z,0.80
2022-11-15T11:58:12.033Z,0.90
2022-11-15T12:00:56.948Z,0.90
2022-11-15T12:03:46.679Z,1.00
2022-11-15T12:06:52.342Z,0.80
2022-11-15T12:09:22.073Z,1.23
2022-11-15T12:12:08.673Z,1.10
2022-11-15T12:14:49.429Z,0.90
2022-11-15T12:17:20.698Z,0.57
2022-11-15T12:19:47.599Z,1.10
2022-11-15T12:22:39.898Z,1.17
2022-11-15T12:25:23.736Z,0.93
2022-11-15T12:28:12.762Z,0.90
2022-11-15T12:31:17.715Z,0.80
2022-11-15T12:33:49.458Z,1.17
2022-11-15T12:36:22.061Z,1.00
2022-11-15T12:39:03.927Z,0.83
2022-11-15T12:41:36.416Z,1.00
2022-11-15T12:44:04.714Z,1.47
2022-11-15T12:46:31.406Z,0.60
2022-11-15T12:49:20.749Z,1.03
2022-11-15T12:51:50.473Z,0.83
2022-11-15T12:54:23.224Z,0.83
2022-11-15T12:57:08.357Z,0.80
2022-11-15T13:00:03.534Z,0.73
2022-11-15T13:02:36.978Z,0.80
2022-11-15T13:05:21.412Z,0.77
2022-11-15T13:07:48.150Z,0.70
2022-11-15T13:10:14.883Z,0.80
2022-11-15T13:12:47.813Z,0.53
2022-11-15T13:15:14.500Z,0.80
2022-11-15T13:17:48.589Z,0.77
2022-11-15T13:20:15.442Z,1.10
2022-11-15T13:23:01.986Z,1.13
2022-11-15T13:25:40.583Z,1.03
2022-11-15T13:28:12.421Z,0.50
2022-11-15T13:30:39.261Z,0.70
2022-11-15T13:33:22.003Z,0.77
2022-11-15T13:35:58.972Z,0.60
2022-11-15T13:38:25.650Z,0.80
2022-11-15T13:40:52.499Z,0.93
2022-11-15T13:43:22.170Z,0.77
2022-11-15T13:46:25.753Z,1.00
2022-11-15T13:48:57.823Z,0.90
2022-11-15T13:51:45.762Z,0.60
2022-11-15T13:54:25.351Z,0.80
2022-11-15T13:56:59.536Z,0.70
2022-11-15T13:59:35.936Z,0.90
2022-11-15T14:02:25.295Z,1.10
2022-11-15T14:04:56.288Z,0.70
2022-11-15T14:07:26.415Z,0.80
2022-11-15T14:09:53.553Z,0.93
2022-11-15T14:12:35.495Z,0.93
2022-11-15T14:15:39.531Z,0.80
2022-11-15T14:18:06.962Z,0.80
2022-11-15T14:20:39.312Z,1.00
2022-11-15T14:23:20.734Z,0.70
2022-11-15T14:25:58.633Z,0.97
2022-11-15T14:28:25.375Z,0.80
2022-11-15T14:30:57.576Z,0.83
2022-11-15T14:33:26.315Z,0.83
2022-11-15T14:35:53.753Z,1.00
2022-11-15T14:38:20.598Z,1.10
2022-11-15T14:40:47.409Z,1.10
2022-11-15T14:43:14.640Z,0.80
2022-11-15T14:45:41.822Z,0.80
2022-11-15T14:48:10.502Z,0.77
2022-11-15T14:50:37.744Z,1.00
2022-11-15T14:53:05.571Z,1.07
2022-11-15T14:55:37.281Z,0.90
2022-11-15T14:58:05.655Z,1.10
2022-11-15T15:00:35.197Z,1.20
2022-11-15T15:03:03.083Z,0.63
2022-11-15T15:05:33.901Z,0.60
2022-11-15T15:08:01.169Z,1.07
2022-11-15T15:10:42.297Z,0.80
2022-11-15T15:13:29.632Z,1.00
2022-11-15T15:15:56.362Z,0.70
2022-11-15T15:18:23.103Z,0.83
2022-11-15T15:21:03.933Z,1.10
2022-11-15T15:23:32.030Z,1.10
2022-11-15T15:25:59.249Z,1.00
2022-11-15T15:28:29.983Z,0.90
2022-11-15T15:31:00.953Z,1.40
2022-11-15T15:33:27.798Z,1.40
2022-11-15T15:35:54.577Z,0.77
2022-11-15T15:38:22.604Z,1.43
2022-11-15T15:40:51.514Z,1.20
2022-11-15T15:43:18.543Z,1.20
2022-11-15T15:45:46.150Z,1.33
2022-11-15T15:48:15.202Z,1.37
2022-11-15T15:50:43.905Z,1.20
2022-11-15T15:53:11.761Z,1.20
2022-11-15T15:55:39.064Z,1.43
2022-11-15T15:58:06.373Z,1.00
2022-11-15T16:00:34.676Z,1.23
2022-11-15T16:03:01.479Z,1.30
2022-11-15T16:05:28.350Z,0.97
2022-11-15T16:07:55.231Z,2.07
2022-11-15T16:10:23.807Z,1.20
2022-11-15T16:12:50.638Z,1.30
2022-11-15T16:15:17.668Z,1.17
2022-11-15T16:17:55.532Z,1.20
2022-11-15T16:20:35.935Z,1.73
2022-11-15T16:23:09.049Z,1.10
2022-11-15T16:25:45.472Z,1.33
2022-11-15T16:28:25.502Z,1.70
2022-11-15T16:31:02.275Z,1.30
2022-11-15T16:33:29.090Z,1.17
2022-11-15T16:35:55.914Z,1.37
2022-11-15T16:38:22.714Z,1.50
2022-11-15T16:40:49.518Z,1.67
2022-11-15T16:43:16.433Z,1.50
2022-11-15T16:45:43.230Z,1.80
2022-11-15T16:48:23.592Z,1.77
2022-11-15T16:50:50.736Z,1.63
2022-11-15T16:53:17.604Z,1.97
2022-11-15T16:55:44.357Z,1.90
2022-11-15T16:58:11.174Z,1.90
2022-11-15T17:00:38.050Z,2.10
2022-11-15T17:03:04.961Z,1.70
2022-11-15T17:05:31.770Z,2.00
2022-11-15T17:07:58.639Z,1.77
2022-11-15T17:10:26.828Z,1.90
2022-11-15T17:12:55.156Z,1.93
2022-11-15T17:15:22.447Z,2.43
2022-11-15T17:17:53.743Z,1.97
2022-11-15T17:20:22.392Z,2.20
2022-11-15T17:22:49.461Z,2.60
2022-11-15T17:25:16.325Z,2.33
2022-11-15T17:27:43.200Z,2.40
2022-11-15T17:30:12.680Z,2.77
2022-11-15T17:32:39.512Z,2.50
2022-11-15T17:35:15.035Z,2.53
2022-11-15T17:37:42.756Z,2.47
2022-11-15T17:40:10.225Z,2.13
2022-11-15T17:42:37.022Z,2.20
2022-11-15T17:45:09.565Z,2.40
2022-11-15T17:47:36.887Z,2.60
2022-11-15T17:50:04.067Z,2.50
2022-11-15T17:52:31.042Z,3.10
2022-11-15T17:54:57.915Z,2.53
2022-11-15T17:57:24.674Z,2.50
2022-11-15T17:59:51.554Z,2.40
2022-11-15T18:02:19.513Z,2.33
2022-11-15T18:04:46.239Z,2.63
2022-11-15T18:07:14.176Z,2.57
2022-11-15T18:09:43.956Z,2.87
2022-11-15T18:12:11.903Z,2.70
2022-11-15T18:14:39.208Z,3.60
2022-11-15T18:17:06.062Z,3.13
2022-11-15T18:19:32.940Z,2.80
2022-11-15T18:22:00.873Z,2.97
2022-11-15T18:24:32.237Z,3.30
2022-11-15T18:26:59.917Z,3.50
2022-11-15T18:29:26.968Z,3.37
2022-11-15T18:31:59.053Z,3.93
2022-11-15T18:34:31.959Z,3.53
2022-11-15T18:36:59.603Z,3.90
2022-11-15T18:39:26.626Z,3.50
2022-11-15T18:41:53.569Z,3.57
2022-11-15T18:44:20.531Z,3.63
2022-11-15T18:46:47.326Z,3.63
2022-11-15T18:49:16.632Z,4.10
2022-11-15T18:51:43.591Z,3.80
2022-11-15T18:54:12.058Z,3.80
2022-11-15T18:56:39.417Z,4.43
2022-11-15T18:59:08.291Z,3.97
2022-11-15T19:01:37.627Z,4.33
2022-11-15T19:04:07.512Z,4.23
2022-11-15T19:06:38.276Z,3.80
2022-11-15T19:09:05.393Z,4.80
2022-11-15T19:11:35.842Z,4.00
2022-11-15T19:14:08.182Z,3.93
2022-11-15T19:16:37.583Z,4.37
2022-11-15T19:19:07.393Z,4.40
2022-11-15T19:21:34.662Z,4.50
2022-11-15T19:24:01.880Z,4.50
2022-11-15T19:26:29.750Z,4.00
2022-11-15T19:28:58.756Z,4.77
2022-11-15T19:31:26.820Z,4.60
2022-11-15T19:33:56.582Z,4.23
2022-11-15T19:36:28.928Z,5.30
2022-11-15T19:38:56.394Z,4.00
2022-11-15T19:41:24.564Z,4.40
2022-11-15T19:43:52.458Z,4.23
2022-11-15T19:46:21.929Z,4.80
2022-11-15T19:48:49.636Z,4.70
2022-11-15T19:51:21.841Z,5.47
2022-11-15T19:53:50.053Z,4.87
2022-11-15T19:56:18.789Z,5.20
2022-11-15T19:58:46.429Z,5.50
2022-11-15T20:01:15.015Z,5.60
2022-11-15T20:03:41.931Z,5.23
2022-11-15T20:06:11.119Z,5.47
2022-11-15T20:08:38.156Z,5.03
2022-11-15T20:11:05.898Z,4.93
2022-11-15T20:13:32.903Z,5.07
2022-11-15T20:16:00.031Z,5.80
2022-11-15T20:18:28.907Z,5.23
2022-11-15T20:20:57.982Z,5.07
2022-11-15T20:23:25.597Z,5.57
2022-11-15T20:25:52.772Z,4.97
2022-11-15T20:28:24.955Z,5.10
2022-11-15T20:30:54.178Z,4.80
2022-11-15T20:33:22.482Z,5.40
2022-11-15T20:35:49.888Z,4.83
2022-11-15T20:38:17.094Z,5.53
2022-11-15T20:40:54.819Z,5.67
2022-11-15T20:43:26.002Z,5.30
2022-11-15T20:45:52.801Z,5.77
2022-11-15T20:48:19.706Z,6.10
2022-11-15T20:50:47.681Z,5.93
2022-11-15T20:53:17.406Z,6.10
2022-11-15T20:55:49.789Z,6.33
2022-11-15T20:58:17.277Z,6.43
2022-11-15T21:00:45.698Z,6.23
2022-11-15T21:03:13.801Z,6.77
2022-11-15T21:05:42.304Z,6.43
2022-11-15T21:08:10.472Z,6.27
2022-11-15T21:10:56.279Z,6.00
2022-11-15T21:13:23.216Z,5.73
2022-11-15T21:15:50.302Z,6.07
2022-11-15T21:18:17.425Z,6.27
2022-11-15T21:20:44.284Z,6.60
2022-11-15T21:23:12.060Z,6.70
2022-11-15T21:25:38.855Z,6.70
2022-11-15T21:28:05.751Z,6.40
2022-11-15T21:30:32.539Z,6.93
2022-11-15T21:32:59.394Z,6.80
2022-11-15T21:35:26.241Z,6.37
2022-11-15T21:37:56.746Z,7.07
2022-11-15T21:40:25.291Z,6.93
2022-11-15T21:42:52.079Z,6.80
2022-11-15T21:45:18.862Z,7.37
2022-11-15T21:47:46.579Z,7.53
2022-11-15T21:50:14.189Z,7.40
2022-11-15T21:52:41.359Z,6.70
2022-11-15T21:55:09.119Z,7.70
2022-11-15T21:57:35.897Z,6.83
2022-11-15T22:00:21.729Z,7.30
2022-11-15T22:02:48.562Z,7.07
2022-11-15T22:05:15.604Z,7.50
2022-11-15T22:07:42.367Z,6.77
2022-11-15T22:10:09.406Z,6.63
2022-11-15T22:12:36.301Z,7.40
2022-11-15T22:15:03.214Z,7.50
2022-11-15T22:17:49.917Z,6.67
2022-11-15T22:20:43.011Z,6.03
2022-11-15T22:23:04.164Z,6.13
2022-11-15T22:25:31.082Z,6.27
2022-11-15T22:27:57.961Z,6.13
2022-11-15T22:30:25.254Z,6.07
2022-11-15T22:32:51.965Z,6.20
2022-11-15T22:35:18.849Z,6.00
2022-11-15T22:37:45.796Z,6.13
2022-11-15T22:40:12.637Z,5.80
2022-11-15T22:42:39.431Z,5.43
2022-11-15T22:45:06.665Z,6.30
2022-11-15T22:47:33.521Z,6.13
2022-11-15T22:50:00.326Z,6.30
2022-11-15T22:52:27.260Z,6.00
2022-11-15T22:54:54.051Z,6.27
2022-11-15T22:57:20.873Z,5.77
2022-11-15T22:59:47.740Z,6.43
2022-11-15T23:02:14.462Z,6.40
2022-11-15T23:04:41.209Z,6.00
2022-11-15T23:07:08.025Z,6.30
2022-11-15T23:09:34.968Z,5.93
2022-11-15T23:12:20.344Z,5.87
2022-11-15T23:14:47.124Z,5.87
2022-11-15T23:17:14.015Z,5.63
2022-11-15T23:19:40.823Z,6.80
2022-11-15T23:22:26.389Z,6.43
2022-11-15T23:24:53.345Z,5.23
2022-11-15T23:27:20.708Z,5.93
2022-11-15T23:30:06.205Z,6.30
2022-11-15T23:32:51.673Z,5.73
2022-11-15T23:35:18.529Z,6.03
2022-11-15T23:37:45.524Z,5.40
2022-11-15T23:40:12.661Z,5.67
2022-11-15T23:42:39.421Z,6.60
2022-11-15T23:45:06.828Z,6.37
2022-11-15T23:47:33.708Z,6.27
2022-11-15T23:50:00.523Z,6.47
2022-11-15T23:52:27.491Z,5.93
2022-11-15T23:54:54.228Z,6.50
2022-11-15T23:57:21.010Z,6.20
2022-11-15T23:59:47.821Z,7.13
